My Meet Scores
Hayley Blocker, Flipstar Gymnastics Academy - MyMeetScores.com
Top100 | Top Teams | Upcoming Meets | Completed Meets | Latest | Add Scores | Help| Support | Bookmark and Share

Hayley Blocker, Flipstar Gymnastics Academy
Personal Bests
LevelVault BarsBeamFloorAA
49.5009.275 9.2509.20036.575
69.3009.275 9.2509.47536.850
79.0758.850 9.0259.52535.775
Meet Scores
Date Meet Team Session Level Division Vault Bars Beam Floor AA
2020-02-28 MEGA Spring Invite 2020 Flipstar Gymnastics Academy 3 7 Senior 8.950 7T 8.375 13 7.550 20 8.900 12 33.775 18
2020-02-07 IGI Chicago Style Meet Flipstar Gymnastics Academy 223 7 B 9.075 7 7.850 14 9.025 5 9.250 9 35.200 10
2020-01-30 Circle of Stars Flipstar Gymnastics Center C07 7 Jr C 8.800 10 8.000 12 8.600 10 9.150 10 34.550 12
2019-12-13 Crossroads Classic Flipstar Gymnastics Academy 5 7 Junior 8.750 10T 8.700 10T 8.800 12 9.525 1 35.775 8
2019-12-07 Home for the Holidays 2019 Flipstar Gymnastics Academy 6 7 Older 8.850 5T 8.850 6 8.425 8 9.400 7T 35.525 6
2019-03-15 Illinois State Championship Level 6,9,10 Flipstar Gymnastics Academy 9 6 Sr A 9.000 9T 8.600 15 9.175 12 9.475 2 36.250 11T
2019-03-01 2019 MEGA Spring Invite Flipstar Gymnastics Academy All 6 All Ages 9.300 1T 9.275 12T 9.025 33T 9.250 22T 36.850 11T
2019-02-23 Kinetic Classic 2019 Flipstar Gymnastics Academy 1 6 Younger 8.550 15 9.225 3 8.900 12 9.450 6T 36.125 9
2019-02-08 Midwest Twisters Harley Meet Womens Flipstar Gymnastics Academy O09 6 12 yrs. 8.850 2 8.975 2 9.250 1 9.175 11 36.250 1
2019-01-25 King Arthur Invitational Flipstar Gymnastics Academy 12 6 SR A 8.500 7 9.150 2 8.850 10T 9.025 7T 35.525 5
2019-01-11 Circle of Stars Gymnastics Flipstar Gymnastics Academy B09 6 Junior B 8.650 47T 9.075 20T 9.200 14 8.925 36T 35.850 18
2018-12-07 Horton Invite Flipstar Gymnastics Academy All 6 Jr 8.600 7T 8.350 8 8.700 11 8.950 11T 34.600 8T
2018-03-08 Level 4 & 5 State Flipstar Gymnastics Academy All 4 Sr A 9.425 2 8.900 11 9.250 18 9.000 15 36.575 10T
2018-02-16 Big Classic Flipstar Gymnastics Academy 7B 4 Child D 9.125 4 9.275 3 8.825 9T 9.200 5T 36.425 4
2017-12-08 Horton Invite At IWU Shirk Center Flipstar Gymnastics Academy All 4 Jr B 9.150 2 8.250 9 9.000 5 8.700 11T 35.100 6
2017-11-17 SCGA Classic Flipstar Gymnastics Academy 2 4 JrC 9.500 1 8.425 3 8.875 1 8.900 5 35.700 2
2017-11-10 Illinois NAWGJ Judges Cup 2017 Flipstar Gymnastics Academy G3 4 All Ages 9.450 1 9.075 24T 8.500 40 8.500 27T 35.525 14T
2017-03-10 2017 Illinois Level 4 State Championships Flipstar Gymnastics Academy 4 4 Youth D 9.400 2 8.500 20T 8.850 21T 8.525 26T 35.275 20
2017-02-24 Kinetic Classic Flipstar Gymnastics Academy 5,6 4 All Ages 9.250 12 8.850 62T 8.675 102T 8.600 92T 35.375 71
2017-02-17 Big Classic Flipstar Gymnastics Academy B 4 Child C 9.000 14T 8.900 24T 8.400 46T 8.300 39 34.600 32
2016-12-09 Horton Invitational Flipstar Gymnastics Academy 2 4 JrD 9.000 4 7.900 13 8.150 16 8.100 14 33.150 12
2016-11-11 2016 Illinois Judges Cup Flipstar Gymnastics Academy R4 4 9 Year Old 8.925 1 6.750 12 8.700 10 7.725 12 32.100 12
Get your scores on
a t-shirt, pin, or hoodie

www.lazysuits.com